Flight Track Log - Related Links

Times and Time Zones

All times are in EDT time to prevent confusion due to time zone crossing. See the JBU110 flight status page for this flight to view local times or setup timezone preferences in your user account.

Time Position Orientation Groundspeed Altitude Reporting Facility
EDT Latitude Longitude Course Direction KTS MPH feet Rate Location/Type
Mon 07:21:46 AM 29.9717 -90.2583 48° Northeast 174 200 800  Level Houston Center
Mon 07:27:07 AM 30.0953 -90.1006 45° Northeast 295 339 12,200 2,079 Climbing Houston Center
Mon 07:28:07 AM 30.1775 -90.0056 45° Northeast 362 417 14,000 1,800 Climbing Houston Center
Mon 07:29:07 AM 30.2600 -89.9106 48° Northeast 391 450 15,800 1,750 Climbing Houston Center
Mon 07:30:07 AM 30.3442 -89.8033 42° Northeast 407 468 17,500 1,950 Climbing Houston Center
Mon 07:31:07 AM 30.4469 -89.6978 57° Northeast 435 501 19,700 2,450 Climbing Houston Center
Mon 07:32:07 AM 30.5119 -89.5833 58° Northeast 435 501 22,400 2,050 Climbing Houston Center
Mon 07:33:07 AM 30.5747 -89.4661 58° Northeast 430 495 23,800 1,350 Climbing Houston Center
Mon 07:34:07 AM 30.6397 -89.3464 57° Northeast 430 495 25,100 1,250 Climbing Houston Center
Mon 07:35:07 AM 30.7064 -89.2267 58° Northeast 430 495 26,300 1,250 Climbing Houston Center
Mon 07:36:07 AM 30.7731 -89.1019 57° Northeast 443 510 27,600 1,200 Climbing Houston Center
Mon 07:37:07 AM 30.8456 -88.9719 60° Northeast 454 522 28,700 1,050 Climbing Houston Center
Mon 07:38:07 AM 30.9036 -88.8542 58° Northeast 460 529 29,700 1,100 Climbing Houston Center
Mon 07:39:07 AM 30.9739 -88.7239 56° Northeast 471 542 30,900 1,350 Climbing Houston Center
Mon 07:40:07 AM 31.0564 -88.5808 59° Northeast 471 542 32,400 1,300 Climbing Houston Center
Mon 07:41:07 AM 31.1242 -88.4478 58° Northeast 471 542 33,500 1,300 Climbing Houston Center
Mon 07:42:07 AM 31.1919 -88.3219 58° Northeast 466 536 35,000 1,150 Climbing Houston Center
Mon 07:43:07 AM 31.2617 -88.1908 58° Northeast 461 531 35,800 597 Climbing Houston Center
Mon 07:45:28 AM 31.4083 -87.9144 59° Northeast 492 566 37,000 358 Climbing Atlanta Center
Mon 07:46:28 AM 31.4814 -87.7742 58° Northeast 474 545 37,000  Level Atlanta Center
Mon 07:47:28 AM 31.5500 -87.6428 58° Northeast 469 540 37,000  Level Atlanta Center
Mon 07:48:28 AM 31.6183 -87.5139 59° Northeast 464 534 37,000  Level Atlanta Center
Mon 07:49:28 AM 31.6847 -87.3822 60° Northeast 464 534 37,000  Level Atlanta Center
Mon 07:50:28 AM 31.7553 -87.2383 59° Northeast 464 534 37,000  Level Atlanta Center
Mon 07:51:28 AM 31.8233 -87.1064 59° Northeast 458 527 37,000  Level Atlanta Center
Mon 07:52:28 AM 31.8892 -86.9789 59° Northeast 459 528 37,000  Level Atlanta Center
Mon 07:53:29 AM 31.9547 -86.8489 59° Northeast 459 528 37,000  Level Atlanta Center
Mon 07:54:28 AM 32.0225 -86.7139 55° Northeast 465 535 37,000  Level Atlanta Center
Mon 07:55:28 AM 32.0894 -86.6006 60° Northeast 465 535 37,000  Level Atlanta Center
Mon 07:56:28 AM 32.1547 -86.4675 61° Northeast 465 535 37,000  Level Atlanta Center
Mon 07:57:28 AM 32.2222 -86.3244 60° Northeast 454 522 37,000  Level Atlanta Center
Mon 07:58:28 AM 32.2808 -86.2056 59° Northeast 454 522 37,000  Level Atlanta Center
Mon 07:59:28 AM 32.3478 -86.0719 59° Northeast 454 522 37,000  Level Atlanta Center
Mon 08:00:28 AM 32.4125 -85.9431 59° Northeast 459 528 37,000  Level Atlanta Center
Mon 08:01:28 AM 32.4811 -85.8092 58° Northeast 464 534 37,000  Level Atlanta Center
Mon 08:02:28 AM 32.5583 -85.6606 59° Northeast 470 541 37,000 50 Level Atlanta Center
Mon 08:03:28 AM 32.6247 -85.5286 59° Northeast 470 541 37,100  Climbing Atlanta Center
Mon 08:04:28 AM 32.6908 -85.3989 60° Northeast 461 531 37,000 -50 Descending Atlanta Center
Mon 08:05:28 AM 32.7550 -85.2689 58° Northeast 461 531 37,000  Level Atlanta Center
Mon 08:06:28 AM 32.8186 -85.1461 59° Northeast 450 518 37,000  Level Atlanta Center
Mon 08:07:28 AM 32.8825 -85.0183 59° Northeast 441 507 37,000  Level Atlanta Center
Mon 08:08:28 AM 32.9481 -84.8903 61° Northeast 441 507 37,000  Level Atlanta Center
Mon 08:09:28 AM 33.0094 -84.7597 59° Northeast 446 513 37,000  Level Atlanta Center
Mon 08:10:28 AM 33.0747 -84.6314 62° Northeast 451 519 37,000  Level Atlanta Center
Mon 08:11:28 AM 33.1297 -84.5103 59° Northeast 451 519 37,000  Level Atlanta Center
Mon 08:12:28 AM 33.1947 -84.3789 59° Northeast 451 519 37,000  Level Atlanta Center
Mon 08:13:28 AM 33.2619 -84.2425 59° Northeast 461 531 37,000  Level Atlanta Center
Mon 08:14:28 AM 33.3267 -84.1133 60° Northeast 461 531 37,000  Level Atlanta Center
Mon 08:15:28 AM 33.3914 -83.9767 60° Northeast 466 536 37,000  Level Atlanta Center
Mon 08:16:28 AM 33.4558 -83.8422 60° Northeast 466 536 37,000  Level Atlanta Center
Mon 08:17:28 AM 33.5203 -83.7100 61° Northeast 466 536 37,000  Level Atlanta Center
Mon 08:18:29 AM 33.5825 -83.5750 59° Northeast 466 536 37,000  Level Atlanta Center
Mon 08:19:28 AM 33.6489 -83.4400 60° Northeast 466 536 37,000  Level Atlanta Center
Mon 08:20:28 AM 33.7128 -83.3094 60° Northeast 466 536 37,000  Level Atlanta Center
Mon 08:21:28 AM 33.7828 -83.1617 61° Northeast 466 536 37,000  Level Atlanta Center
Mon 08:22:28 AM 33.8464 -83.0258 61° Northeast 461 531 37,000  Level Atlanta Center
Mon 08:23:28 AM 33.9078 -82.8900 61° Northeast 467 537 37,000  Level Atlanta Center
Mon 08:24:28 AM 33.9711 -82.7539 60° Northeast 459 528 37,000  Level Atlanta Center
Mon 08:25:28 AM 34.0364 -82.6175 61° Northeast 459 528 37,000  Level Atlanta Center
Mon 08:26:28 AM 34.0994 -82.4808 60° Northeast 465 535 37,000  Level Atlanta Center
Mon 08:27:28 AM 34.1625 -82.3467 60° Northeast 465 535 37,000  Level Atlanta Center
Mon 08:28:28 AM 34.2272 -82.2097 60° Northeast 465 535 37,000  Level Atlanta Center
Mon 08:29:28 AM 34.2919 -82.0725 58° Northeast 465 535 37,000  Level Atlanta Center
Mon 08:30:28 AM 34.3586 -81.9428 59° Northeast 465 535 37,000  Level Atlanta Center
Mon 08:31:28 AM 34.4253 -81.8100 58° Northeast 460 529 37,000  Level Atlanta Center
Mon 08:32:28 AM 34.4936 -81.6747 59° Northeast 460 529 37,000  Level Atlanta Center
Mon 08:33:28 AM 34.5597 -81.5417 59° Northeast 460 529 37,000  Level Atlanta Center
Mon 08:34:28 AM 34.6281 -81.4033 61° Northeast 460 529 37,000  Level Atlanta Center
Mon 08:35:28 AM 34.6897 -81.2700 59° Northeast 460 529 37,000  Level Atlanta Center
Mon 08:36:28 AM 34.7575 -81.1339 60° Northeast 460 529 37,000  Level Atlanta Center
Mon 08:37:28 AM 34.8231 -80.9975 58° Northeast 460 529 37,000  Level Atlanta Center
Mon 08:38:28 AM 34.8906 -80.8633 60° Northeast 460 529 37,000  Level Atlanta Center
Mon 08:39:28 AM 34.9539 -80.7292 60° Northeast 460 529 37,000  Level Atlanta Center
Mon 08:40:28 AM 35.0189 -80.5922 59° Northeast 465 535 37,000  Level Atlanta Center
Mon 08:42:19 AM 35.1347 -80.3539 60° Northeast 465 535 37,000  Level Washington Center
Mon 08:43:20 AM 35.2008 -80.2156 59° Northeast 465 535 37,000  Level Washington Center
Mon 08:44:20 AM 35.2664 -80.0819 60° Northeast 464 534 37,000  Level Washington Center
Mon 08:45:18 AM 35.3275 -79.9506 60° Northeast 459 528 37,000  Level Washington Center
Mon 08:46:18 AM 35.3931 -79.8114 68° East 459 528 37,000  Level Washington Center
Mon 08:47:19 AM 35.4419 -79.6661 61° Northeast 452 520 37,000  Level Washington Center
Mon 08:48:20 AM 35.5094 -79.5164 61° Northeast 460 529 37,000  Level Washington Center
Mon 08:49:18 AM 35.5725 -79.3764 63° Northeast 460 529 37,000  Level Washington Center
Mon 08:50:19 AM 35.6311 -79.2361 61° Northeast 460 529 37,000  Level Washington Center
Mon 08:51:19 AM 35.6936 -79.0983 62° Northeast 465 535 37,000  Level Washington Center
Mon 08:52:20 AM 35.7542 -78.9578 62° Northeast 460 529 37,000  Level Washington Center
Mon 08:53:18 AM 35.8164 -78.8144 62° Northeast 465 535 37,000  Level Washington Center
Mon 08:54:19 AM 35.8697 -78.6883 62° Northeast 465 535 37,000  Level Washington Center
Mon 08:55:20 AM 35.9297 -78.5469 62° Northeast 465 535 37,000  Level Washington Center
Mon 08:56:21 AM 35.9917 -78.4031 62° Northeast 465 535 37,000  Level Washington Center
Mon 08:57:19 AM 36.0533 -78.2614 63° Northeast 467 537 37,000  Level Washington Center
Mon 08:58:19 AM 36.1128 -78.1194 63° Northeast 467 537 37,000  Level Washington Center
Mon 08:59:20 AM 36.1764 -77.9644 63° Northeast 462 532 37,000  Level Washington Center
Mon 09:00:20 AM 36.2356 -77.8219 62° Northeast 462 532 37,000  Level Washington Center
Mon 09:01:18 AM 36.2944 -77.6819 62° Northeast 462 532 37,000  Level Washington Center
Mon 09:02:18 AM 36.3553 -77.5392 65° Northeast 462 532 37,000  Level Washington Center
Mon 09:03:19 AM 36.4075 -77.3986 64° Northeast 456 525 37,000  Level Washington Center
Mon 09:04:20 AM 36.4594 -77.2681 63° Northeast 456 525 37,000  Level Washington Center
Mon 09:05:18 AM 36.5175 -77.1244 50° Northeast 456 525 37,000  Level Washington Center
Mon 09:06:19 AM 36.5983 -77.0044 39° Northeast 456 525 37,000  Level Washington Center
Mon 09:07:19 AM 36.6956 -76.9053 41° Northeast 443 510 37,000  Level Washington Center
Mon 09:08:19 AM 36.7883 -76.8058 40° Northeast 437 503 37,000  Level Washington Center
Mon 09:09:20 AM 36.8875 -76.7033 39° Northeast 442 509 37,000  Level Washington Center
Mon 09:10:20 AM 36.9822 -76.6058 40° Northeast 442 509 37,000  Level Washington Center
Mon 09:11:18 AM 37.0767 -76.5056 40° Northeast 447 514 37,000  Level Washington Center
Mon 09:12:18 AM 37.1733 -76.4050 40° Northeast 447 514 37,000  Level Washington Center
Mon 09:13:19 AM 37.2783 -76.2939 40° Northeast 447 514 37,000  Level Washington Center
Mon 09:14:20 AM 37.3728 -76.1928 36° Northeast 447 514 37,000 -50 Level Washington Center
Mon 09:15:20 AM 37.4733 -76.0994 42° Northeast 447 514 36,900  Descending Washington Center
Mon 09:16:18 AM 37.5656 -75.9953 39° Northeast 452 520 37,000 50 Climbing Washington Center
Mon 09:17:19 AM 37.6597 -75.8986 41° Northeast 444 511 37,000  Level Washington Center
Mon 09:18:19 AM 37.7539 -75.7967 41° Northeast 444 511 37,000  Level Washington Center
Mon 09:19:20 AM 37.8478 -75.6944 40° Northeast 444 511 37,000  Level Washington Center
Mon 09:20:20 AM 37.9417 -75.5944 40° Northeast 444 511 37,000  Level Washington Center
Mon 09:21:20 AM 38.0356 -75.4942 31° Northeast 444 511 37,000  Level Washington Center
Mon 09:22:18 AM 38.1397 -75.4147 27° Northeast 439 505 37,000  Level Washington Center
Mon 09:23:18 AM 38.2478 -75.3458 25° Northeast 433 498 37,000  Level Washington Center
Mon 09:24:19 AM 38.3603 -75.2792 29° Northeast 433 498 37,000  Level Washington Center
Mon 09:25:19 AM 38.4686 -75.2019 25° Northeast 433 498 37,000  Level Washington Center
Mon 09:26:20 AM 38.5789 -75.1350 27° Northeast 433 498 37,000  Level Washington Center
Mon 09:27:20 AM 38.6869 -75.0650 27° Northeast 433 498 37,000 -203 Level Washington Center
Mon 09:28:18 AM 38.7950 -74.9950 27° Northeast 433 498 36,600 -966 Descending Washington Center
Mon 09:29:18 AM 38.9050 -74.9222 25° Northeast 433 498 35,100 -2,115 Descending Washington Center
Mon 09:30:20 AM 39.0131 -74.8569 32° Northeast 428 493 32,300 -2,550 Descending Washington Center
Mon 09:31:18 AM 39.1208 -74.7703 39° Northeast 428 493 30,000 -2,319 Descending Washington Center
Mon 09:32:19 AM 39.2161 -74.6700 40° Northeast 439 505 27,700 -2,311 Descending Washington Center
Mon 09:33:20 AM 39.3092 -74.5697 39° Northeast 439 505 25,300 -2,281 Descending Washington Center
Mon 09:34:20 AM 39.4000 -74.4744 40° Northeast 433 498 23,100 -2,516 Descending Washington Center
Mon 09:35:24 AM 39.4958 -74.3706 40° Northeast 419 482 20,100 -2,448 Descending New York Center
Mon 09:36:25 AM 39.5822 -74.2753 39° Northeast 407 468 18,000 -1,388 Descending New York Center
Mon 09:37:25 AM 39.6617 -74.1903 41° Northeast 385 443 17,300 -1,388 Descending New York Center
Mon 09:38:26 AM 39.7328 -74.1100 41° Northeast 371 427 15,200 -1,664 Descending New York Center
Mon 09:39:24 AM 39.8167 -74.0167 33° Northeast 366 421 14,000 -1,525 Descending New York Center
Mon 09:40:24 AM 39.8978 -73.9475 28° Northeast 359 413 12,200 -1,475 Descending New York Center
Mon 09:41:26 AM 39.9828 -73.8889 28° Northeast 347 399 11,000 -585 Descending New York Center
Mon 09:42:27 AM 40.0486 -73.8431 27° Northeast 309 356 11,000 -610 Level New York Center
Mon 09:43:24 AM 40.1292 -73.7897 28° Northeast 293 337 9,800 -1,311 Descending New York Center
Mon 09:44:26 AM 40.1908 -73.7461 353° North 286 329 8,400 -1,900 Descending New York Center
Mon 09:45:24 AM 40.2656 -73.7575 298° West 253 291 6,000 -1,932 Descending New York Center
Mon 09:46:24 AM 40.3028 -73.8489 302° West 244 281 4,600 -992 Descending New York Center
Mon 09:47:25 AM 40.3344 -73.9158 351° North 249 287 4,000 -787 Descending New York Center
Mon 09:48:26 AM 40.3986 -73.9297 16° North 210 242 3,000 -645 Descending New York Center
Mon 09:49:26 AM 40.4447 -73.9128 29° Northeast 200 230 2,700 -500 Descending New York Center
Mon 09:50:26 AM 40.4936 -73.8767 33° Northeast 184 212 2,000 -356 Descending New York Center
Mon 09:51:24 AM 40.5364 -73.8403 53° Northeast 173 199 2,000 -270 Level New York Center
Mon 09:51:55 AM 40.5500 -73.8167 21° North 166 191 1,600 -791 Descending New York TRACON
Mon 09:52:55 AM 40.5833 -73.8000 29° Northeast 138 159 800 -477 Descending New York TRACON
Mon 09:54:26 AM 40.6383 -73.7603 276° West 139 160 400 -264 Descending New York Center
Mon 10:01:52 AM 40.7204 -74.9143 276° West  Level Estimated

Login

Don't have an account? Register now (free) for customized features, flight alerts, and more!